Time;durP1;ratioP1;P1;durP2;ratioP2;P2;SDS_P1;SDS_P2;PMS_P1;PMS_P2;Temp;Humidity;BMP_temperature;BMP_pressure;BME280_temperature;BME280_humidity;BME280_pressure;Samples;Min_cycle;Max_cycle;Signal;HPM_P1;HPM_P2
2023/03/15 00:01:23;;;;;;;32.05;20.15;;;26.30;99.90;;;;;;5016835;28;20029;-61
2023/03/15 00:03:49;;;;;;;29.33;20.83;;;26.40;99.90;;;;;;5017551;28;20109;-61
2023/03/15 00:06:16;;;;;;;36.08;20.05;;;26.30;99.90;;;;;;5017367;28;20154;-61
2023/03/15 00:08:46;;;;;;;29.70;17.33;;;26.30;99.90;;;;;;5017358;28;20109;-62
2023/03/15 00:11:14;;;;;;;33.10;19.27;;;26.30;99.90;;;;;;5017302;28;20115;-62
2023/03/15 00:13:41;;;;;;;31.20;19.65;;;26.30;99.90;;;;;;5017217;28;20048;-62
2023/03/15 00:16:08;;;;;;;31.83;18.27;;;26.40;99.90;;;;;;5017100;28;20037;-61
2023/03/15 00:18:35;;;;;;;84.03;43.70;;;26.40;99.90;;;;;;5017192;28;20026;-62
2023/03/15 00:21:01;;;;;;;40.10;23.15;;;26.50;99.90;;;;;;5016976;28;20057;-63
2023/03/15 00:23:28;;;;;;;30.23;21.85;;;26.50;99.90;;;;;;5016976;28;20463;-63
2023/03/15 00:25:54;;;;;;;28.73;19.95;;;26.50;99.90;;;;;;5017054;28;20037;-61
2023/03/15 00:28:21;;;;;;;28.42;18.42;;;26.50;99.90;;;;;;5029271;28;20053;-64
2023/03/15 00:30:48;;;;;;;94.10;68.28;;;26.50;99.90;;;;;;5037426;28;20040;-62
2023/03/15 00:33:15;;;;;;;65.25;42.05;;;26.50;99.90;;;;;;5037132;28;20083;-63
2023/03/15 00:35:44;;;;;;;65.65;46.28;;;26.50;99.90;;;;;;5036925;28;20021;-63
2023/03/15 00:38:12;;;;;;;77.43;58.20;;;26.60;99.90;;;;;;5036632;28;20062;-62
2023/03/15 00:40:39;;;;;;;58.42;43.33;;;26.60;99.90;;;;;;5036775;28;20033;-62
2023/03/15 00:43:05;;;;;;;34.20;21.50;;;26.60;99.90;;;;;;5036396;28;20022;-63
2023/03/15 00:45:32;;;;;;;34.78;20.73;;;26.60;99.90;;;;;;5036627;28;20021;-62
2023/03/15 00:47:59;;;;;;;34.58;18.95;;;26.70;99.90;;;;;;5036398;28;20021;-63
2023/03/15 00:50:26;;;;;;;37.00;20.58;;;26.80;99.90;;;;;;5036221;28;20025;-63
2023/03/15 00:52:52;;;;;;;44.70;27.63;;;26.80;99.90;;;;;;5030663;28;20488;-63
2023/03/15 00:55:20;;;;;;;93.97;51.60;;;26.90;99.90;;;;;;5029104;28;20109;-63
2023/03/15 00:57:47;;;;;;;60.47;37.97;;;26.90;99.90;;;;;;5026960;28;20026;-63
2023/03/15 01:00:22;;;;;;;50.92;34.53;;;27.00;99.90;;;;;;5016888;28;20024;-61
2023/03/15 01:02:48;;;;;;;46.53;28.23;;;26.90;99.90;;;;;;5016680;28;20109;-63
2023/03/15 01:05:15;;;;;;;34.33;19.48;;;27.00;99.90;;;;;;5016641;28;20036;-63
2023/03/15 01:07:44;;;;;;;142.35;97.68;;;27.00;99.90;;;;;;5016254;28;20026;-63
2023/03/15 01:10:12;;;;;;;59.10;36.47;;;27.10;99.90;;;;;;5039872;28;20029;-63
2023/03/15 01:12:39;;;;;;;77.53;46.08;;;27.10;99.90;;;;;;5042485;28;20060;-64
2023/03/15 01:15:08;;;;;;;29.02;19.98;;;27.20;99.90;;;;;;5045410;28;20100;-63
2023/03/15 01:17:34;;;;;;;47.50;28.02;;;27.20;99.90;;;;;;5045151;28;20033;-64
2023/03/15 01:20:01;;;;;;;59.58;35.42;;;27.10;99.90;;;;;;5043545;28;20021;-64
2023/03/15 01:22:27;;;;;;;35.55;19.58;;;27.20;99.90;;;;;;5038259;28;20459;-67
2023/03/15 01:24:54;;;;;;;274.73;146.90;;;27.10;99.90;;;;;;5046185;28;20445;-69
2023/03/15 01:27:20;;;;;;;83.30;47.50;;;27.20;99.90;;;;;;5044973;28;20386;-73
2023/03/15 01:29:47;;;;;;;47.90;29.63;;;27.20;99.90;;;;;;5044476;28;20428;-68
2023/03/15 01:32:13;;;;;;;81.68;41.63;;;27.30;99.90;;;;;;5046491;28;20029;-68
2023/03/15 01:34:42;;;;;;;37.45;20.88;;;27.30;99.90;;;;;;5044617;28;20061;-66
2023/03/15 01:37:13;;;;;;;233.98;105.85;;;27.30;99.90;;;;;;5043159;28;20029;-67
2023/03/15 01:39:40;;;;;;;90.32;46.22;;;27.30;99.90;;;;;;5043161;28;20035;-66
2023/03/15 01:42:08;;;;;;;61.55;31.30;;;27.40;99.90;;;;;;5045577;28;20078;-67
2023/03/15 01:44:54;;;;;;;820.83;641.47;;;27.40;99.90;;;;;;5041232;28;20018;-70
2023/03/15 01:47:24;;;;;;;145.30;102.38;;;27.50;99.90;;;;;;5043217;28;20606;-67
2023/03/15 01:50:10;;;;;;;47.88;32.75;;;27.50;99.90;;;;;;5043970;28;20033;-66
2023/03/15 01:52:40;;;;;;;47.70;27.73;;;27.60;99.90;;;;;;5041582;28;20525;-67
2023/03/15 01:55:14;;;;;;;32.17;19.88;;;27.60;99.90;;;;;;5044480;28;20030;-67
2023/03/15 01:57:55;;;;;;;60.80;33.50;;;27.60;99.90;;;;;;5042009;28;20040;-64
2023/03/15 02:00:23;;;;;;;38.17;21.38;;;27.60;99.90;;;;;;5042133;28;20108;-63
2023/03/15 02:02:54;;;;;;;98.38;48.40;;;27.60;99.90;;;;;;5042917;28;20021;-62
2023/03/15 02:05:26;;;;;;;70.13;36.30;;;27.70;99.90;;;;;;5041870;28;20045;-64
2023/03/15 02:07:54;;;;;;;47.85;24.15;;;27.70;99.90;;;;;;5041500;28;20459;-63
2023/03/15 02:10:45;;;;;;;51.55;25.42;;;27.80;99.90;;;;;;5042208;28;20032;-68
2023/03/15 02:13:14;;;;;;;376.00;160.48;;;27.80;99.90;;;;;;5035642;28;20522;-66
2023/03/15 02:15:45;;;;;;;303.00;146.60;;;27.90;99.90;;;;;;5043257;28;20009;-65
2023/03/15 02:18:15;;;;;;;41.78;23.77;;;28.00;99.90;;;;;;5044090;28;20103;-67
2023/03/15 02:20:56;;;;;;;42.50;22.52;;;28.10;99.90;;;;;;5032897;28;20435;-65
2023/03/15 02:23:23;;;;;;;39.72;18.48;;;28.10;99.90;;;;;;5041480;28;20028;-66
2023/03/15 02:26:14;;;;;;;45.88;23.98;;;28.20;99.90;;;;;;5042542;28;20029;-67
2023/03/15 02:28:42;;;;;;;37.70;19.50;;;28.20;99.90;;;;;;5041732;28;20033;-68
2023/03/15 02:31:09;;;;;;;46.75;25.75;;;28.30;99.90;;;;;;5042660;28;20074;-67
2023/03/15 02:33:49;;;;;;;43.45;23.63;;;28.30;99.90;;;;;;5033352;28;20073;-67
2023/03/15 02:36:20;;;;;;;244.32;137.73;;;28.30;99.90;;;;;;5044243;28;20441;-67
2023/03/15 02:38:48;;;;;;;98.60;52.80;;;28.40;99.90;;;;;;5033180;28;20037;-65
2023/03/15 02:41:28;;;;;;;42.38;22.75;;;28.50;99.90;;;;;;5033469;28;20026;-66
2023/03/15 02:44:02;;;;;;;68.40;36.20;;;28.60;99.90;;;;;;5041903;28;20053;-66
2023/03/15 02:46:29;;;;;;;90.72;44.92;;;28.70;99.90;;;;;;5042302;28;20032;-65
2023/03/15 02:48:56;;;;;;;59.47;30.25;;;28.70;99.90;;;;;;5043998;28;20021;-66
2023/03/15 02:51:26;;;;;;;113.32;51.42;;;28.80;99.90;;;;;;5032986;28;20033;-67
2023/03/15 02:53:53;;;;;;;42.15;23.15;;;28.80;99.90;;;;;;5032895;28;20029;-66
2023/03/15 02:56:20;;;;;;;52.00;22.63;;;28.90;99.90;;;;;;5032776;28;20378;-66
2023/03/15 02:58:47;;;;;;;38.05;18.30;;;29.00;99.90;;;;;;5032652;28;20013;-67
2023/03/15 03:01:15;;;;;;;48.20;23.25;;;29.00;99.90;;;;;;5028605;28;20021;-67
2023/03/15 03:03:44;;;;;;;41.40;20.33;;;29.00;99.90;;;;;;5014175;28;20081;-68
2023/03/15 03:06:12;;;;;;;148.82;69.28;;;28.90;99.90;;;;;;5013962;28;20072;-68
2023/03/15 03:08:38;;;;;;;185.32;118.57;;;28.90;99.90;;;;;;5014067;28;20034;-67
2023/03/15 03:11:05;;;;;;;30.60;16.70;;;28.90;99.90;;;;;;5013992;28;20030;-67
2023/03/15 03:13:32;;;;;;;38.63;19.30;;;28.80;99.90;;;;;;5013886;28;20018;-68
2023/03/15 03:15:59;;;;;;;88.55;36.15;;;28.80;99.90;;;;;;5013898;28;20038;-67
2023/03/15 03:18:28;;;;;;;154.68;86.45;;;28.80;99.90;;;;;;5017756;28;20100;-66
2023/03/15 03:20:56;;;;;;;74.57;35.42;;;28.80;99.90;;;;;;5020322;28;20030;-66
2023/03/15 03:23:25;;;;;;;34.42;19.52;;;28.80;99.90;;;;;;5013984;28;20050;-65
2023/03/15 03:25:53;;;;;;;116.50;61.33;;;28.70;99.90;;;;;;5013896;28;20030;-66
2023/03/15 03:28:22;;;;;;;159.75;84.03;;;28.70;99.90;;;;;;5013763;28;20034;-67
2023/03/15 03:30:50;;;;;;;137.75;67.15;;;28.70;99.90;;;;;;5014055;28;20045;-68
2023/03/15 03:33:17;;;;;;;71.18;32.80;;;28.70;99.90;;;;;;5020361;28;20030;-66
2023/03/15 03:35:43;;;;;;;53.63;28.38;;;28.70;99.90;;;;;;5025323;28;20060;-67
2023/03/15 03:38:11;;;;;;;55.33;26.17;;;28.70;99.90;;;;;;5032224;28;20095;-67
2023/03/15 03:40:38;;;;;;;36.92;18.38;;;28.70;99.90;;;;;;5036583;28;20371;-66
2023/03/15 03:43:05;;;;;;;77.30;41.33;;;28.80;99.90;;;;;;5043127;28;20019;-67
2023/03/15 03:45:32;;;;;;;63.65;33.13;;;28.90;99.90;;;;;;5042077;28;20034;-65
2023/03/15 03:47:59;;;;;;;59.92;28.50;;;28.90;99.90;;;;;;5043116;28;20025;-67
2023/03/15 03:50:26;;;;;;;44.85;20.05;;;29.00;99.90;;;;;;5038644;28;20110;-67
2023/03/15 03:52:53;;;;;;;164.02;87.82;;;29.00;99.90;;;;;;5042144;28;20159;-66
2023/03/15 03:55:23;;;;;;;53.30;28.13;;;29.00;99.90;;;;;;5032234;28;20429;-67
2023/03/15 03:57:51;;;;;;;28.23;13.45;;;29.00;99.90;;;;;;5039649;28;20042;-67
2023/03/15 04:00:18;;;;;;;53.45;30.73;;;29.10;99.90;;;;;;5041409;28;20022;-67
2023/03/15 04:02:45;;;;;;;34.90;13.90;;;29.10;99.90;;;;;;5043155;28;20067;-68
2023/03/15 04:05:12;;;;;;;63.83;34.10;;;29.10;99.90;;;;;;5041791;28;20063;-67
2023/03/15 04:07:39;;;;;;;36.45;18.30;;;29.10;99.90;;;;;;5038888;28;20037;-67
2023/03/15 04:10:05;;;;;;;55.60;26.35;;;29.20;99.90;;;;;;5038450;28;20032;-65
2023/03/15 04:12:32;;;;;;;28.02;15.85;;;29.30;99.90;;;;;;5041928;28;20021;-65
2023/03/15 04:14:58;;;;;;;34.65;15.45;;;29.40;99.90;;;;;;5042832;28;20069;-68
2023/03/15 04:17:25;;;;;;;151.05;65.47;;;29.50;99.90;;;;;;5038280;28;20029;-67
2023/03/15 04:19:51;;;;;;;97.18;47.53;;;29.50;99.90;;;;;;5046805;28;20419;-66
2023/03/15 04:22:18;;;;;;;79.00;45.03;;;29.60;99.90;;;;;;5053343;28;20429;-66
2023/03/15 04:24:44;;;;;;;43.47;25.38;;;29.70;99.90;;;;;;5053007;28;20021;-67
2023/03/15 04:27:13;;;;;;;134.55;104.53;;;29.70;99.90;;;;;;5026290;28;20515;-69
2023/03/15 04:29:42;;;;;;;42.78;26.33;;;29.80;99.90;;;;;;5022163;28;20034;-69
2023/03/15 04:32:10;;;;;;;54.33;33.97;;;29.80;99.90;;;;;;5025993;28;20045;-67
2023/03/15 04:34:37;;;;;;;28.48;15.40;;;29.80;99.90;;;;;;5024074;28;20029;-67
2023/03/15 04:37:05;;;;;;;63.53;40.00;;;29.90;99.90;;;;;;5026283;28;20030;-66
2023/03/15 04:39:31;;;;;;;44.22;26.17;;;29.90;99.90;;;;;;5019979;28;20056;-67
2023/03/15 04:41:58;;;;;;;37.67;23.20;;;30.00;99.90;;;;;;5020061;28;20033;-68
2023/03/15 04:44:26;;;;;;;40.70;21.70;;;30.20;99.90;;;;;;5014608;28;20017;-67
2023/03/15 04:46:54;;;;;;;38.92;19.52;;;30.30;99.90;;;;;;5019095;28;20037;-68
2023/03/15 04:49:21;;;;;;;41.08;21.35;;;30.30;99.90;;;;;;5028054;28;20455;-67
2023/03/15 04:51:48;;;;;;;73.68;48.22;;;30.30;99.90;;;;;;5026584;28;20079;-71
2023/03/15 04:54:14;;;;;;;42.13;21.92;;;30.40;99.90;;;;;;5017904;28;20096;-66
2023/03/15 04:56:41;;;;;;;107.75;52.75;;;30.50;99.90;;;;;;5016692;28;20053;-67
2023/03/15 04:59:09;;;;;;;55.85;26.15;;;30.50;99.90;;;;;;5016640;28;20104;-68
2023/03/15 05:01:37;;;;;;;42.38;18.45;;;30.40;99.90;;;;;;5017687;28;20084;-67
2023/03/15 05:04:03;;;;;;;46.13;24.67;;;30.40;99.90;;;;;;5016910;28;20108;-66
2023/03/15 05:06:30;;;;;;;34.78;18.63;;;30.50;99.90;;;;;;5024933;28;20026;-67
2023/03/15 05:08:56;;;;;;;28.55;15.18;;;30.50;99.90;;;;;;5028501;28;20061;-67
2023/03/15 05:11:23;;;;;;;31.38;15.05;;;30.70;99.90;;;;;;5020728;28;20033;-69
2023/03/15 05:13:50;;;;;;;25.83;14.55;;;30.70;99.90;;;;;;5041367;28;20092;-68
2023/03/15 05:16:16;;;;;;;47.08;33.90;;;30.70;99.90;;;;;;5044898;28;20501;-65
2023/03/15 05:18:44;;;;;;;19.65;12.40;;;30.70;99.90;;;;;;5030583;28;20052;-68
2023/03/15 05:21:11;;;;;;;20.58;12.52;;;30.70;99.90;;;;;;5032978;28;20458;-68
2023/03/15 05:23:38;;;;;;;38.10;25.05;;;30.70;99.90;;;;;;5035631;28;20044;-66
2023/03/15 05:26:05;;;;;;;23.17;12.43;;;30.70;99.90;;;;;;5028032;28;20491;-61
2023/03/15 05:28:31;;;;;;;20.63;11.35;;;30.70;99.90;;;;;;5033625;28;20387;-63
2023/03/15 05:30:58;;;;;;;16.13;10.88;;;30.70;99.90;;;;;;5033507;28;20481;-62
2023/03/15 05:33:25;;;;;;;17.75;10.75;;;30.70;99.90;;;;;;5034398;28;20036;-62
2023/03/15 05:35:54;;;;;;;23.67;11.52;;;30.80;99.90;;;;;;5037876;28;20083;-62
2023/03/15 05:38:25;;;;;;;26.00;12.38;;;30.80;99.90;;;;;;5033276;28;20046;-63
2023/03/15 05:40:53;;;;;;;24.23;12.73;;;30.80;99.90;;;;;;5032079;28;20040;-61
2023/03/15 05:43:20;;;;;;;17.30;10.95;;;30.80;99.90;;;;;;5029905;28;20018;-63
2023/03/15 05:45:47;;;;;;;23.88;11.95;;;30.70;99.90;;;;;;5024888;28;20109;-61
2023/03/15 05:48:15;;;;;;;25.83;12.02;;;30.70;99.90;;;;;;5027928;28;20013;-62
2023/03/15 05:50:42;;;;;;;31.92;16.33;;;30.60;99.90;;;;;;5041820;28;20040;-63
2023/03/15 05:53:09;;;;;;;56.92;32.20;;;30.60;99.90;;;;;;5045146;28;20033;-65
2023/03/15 05:55:36;;;;;;;29.88;16.10;;;30.60;99.90;;;;;;5034302;28;20120;-63
2023/03/15 05:58:02;;;;;;;23.75;15.15;;;30.60;99.90;;;;;;5044777;28;20078;-63
2023/03/15 06:00:29;;;;;;;73.90;49.15;;;30.60;99.90;;;;;;5034291;28;20056;-63
2023/03/15 06:02:55;;;;;;;48.97;31.55;;;30.60;99.90;;;;;;5042540;28;20040;-64
2023/03/15 06:05:22;;;;;;;30.60;19.02;;;30.50;99.90;;;;;;5043276;28;20092;-64
2023/03/15 06:07:48;;;;;;;91.07;56.30;;;30.40;99.90;;;;;;5040491;28;20533;-63
2023/03/15 06:10:15;;;;;;;40.28;23.23;;;30.30;99.90;;;;;;5039274;28;20367;-64
2023/03/15 06:12:43;;;;;;;50.42;33.70;;;30.30;99.90;;;;;;5045548;28;20025;-62
2023/03/15 06:15:10;;;;;;;34.45;21.10;;;30.10;99.90;;;;;;5038333;28;20021;-62
2023/03/15 06:17:36;;;;;;;38.88;22.58;;;30.00;99.90;;;;;;5042206;28;20028;-61
2023/03/15 06:20:03;;;;;;;51.28;30.67;;;29.90;99.90;;;;;;5044421;28;20017;-62
2023/03/15 06:22:30;;;;;;;55.40;36.67;;;29.80;99.90;;;;;;5042746;28;20036;-61
2023/03/15 06:24:57;;;;;;;33.90;19.35;;;29.70;99.90;;;;;;5038022;28;20110;-62
2023/03/15 06:27:23;;;;;;;33.83;22.13;;;29.50;99.90;;;;;;5037281;28;20076;-62
2023/03/15 06:29:50;;;;;;;19.70;10.80;;;29.40;99.90;;;;;;5036902;28;20489;-62
2023/03/15 06:32:16;;;;;;;28.00;19.67;;;29.30;99.90;;;;;;5035039;28;20029;-62
2023/03/15 06:34:43;;;;;;;24.70;13.55;;;29.10;99.90;;;;;;5039242;28;20039;-61
2023/03/15 06:37:12;;;;;;;23.10;15.60;;;29.00;99.90;;;;;;5043939;28;20029;-62
2023/03/15 06:39:39;;;;;;;31.15;18.90;;;29.00;99.90;;;;;;5044525;28;20025;-62
2023/03/15 06:42:07;;;;;;;33.00;21.17;;;29.00;99.90;;;;;;5040367;28;20025;-62
2023/03/15 06:44:35;;;;;;;23.73;15.02;;;28.90;99.90;;;;;;5043711;28;20350;-63
2023/03/15 06:47:01;;;;;;;25.88;17.67;;;28.90;99.90;;;;;;5044357;28;20493;-63
2023/03/15 06:49:28;;;;;;;34.05;25.02;;;29.00;99.90;;;;;;5033633;28;20036;-63
2023/03/15 06:51:56;;;;;;;41.60;30.55;;;28.90;99.90;;;;;;5033651;28;20030;-63
2023/03/15 06:54:23;;;;;;;25.40;16.33;;;28.90;99.90;;;;;;5034011;28;20018;-62
2023/03/15 06:56:50;;;;;;;21.02;13.00;;;29.00;99.90;;;;;;5041983;28;20453;-63
2023/03/15 06:59:16;;;;;;;52.60;41.25;;;28.90;99.90;;;;;;5040641;28;20022;-63
2023/03/15 07:01:43;;;;;;;37.05;26.02;;;29.00;99.90;;;;;;5040848;28;20032;-61
2023/03/15 07:04:09;;;;;;;46.50;30.38;;;28.90;99.90;;;;;;5042165;28;20024;-63
2023/03/15 07:06:36;;;;;;;32.20;18.27;;;28.90;99.90;;;;;;5040916;28;20036;-62
2023/03/15 07:09:04;;;;;;;43.22;19.92;;;28.90;99.90;;;;;;5041376;28;20033;-64
2023/03/15 07:11:30;;;;;;;47.03;22.52;;;28.80;99.90;;;;;;5044169;28;20025;-64
2023/03/15 07:13:57;;;;;;;43.97;21.95;;;28.70;99.90;;;;;;5044248;28;20025;-64
2023/03/15 07:16:25;;;;;;;30.73;16.45;;;28.60;99.90;;;;;;5033570;28;20018;-64
2023/03/15 07:18:54;;;;;;;35.60;16.10;;;28.60;99.90;;;;;;5040059;28;20030;-63
2023/03/15 07:21:21;;;;;;;26.85;14.38;;;28.50;99.90;;;;;;5034691;28;20028;-63
2023/03/15 07:23:47;;;;;;;24.42;13.90;;;28.50;99.90;;;;;;5028854;28;20025;-64
2023/03/15 07:26:14;;;;;;;28.10;14.52;;;28.50;99.90;;;;;;5044226;28;20020;-64
2023/03/15 07:28:42;;;;;;;31.58;17.20;;;28.40;99.90;;;;;;5043459;28;20025;-64
2023/03/15 07:31:10;;;;;;;30.15;18.23;;;28.40;99.90;;;;;;5040033;28;20029;-67
2023/03/15 07:33:37;;;;;;;25.63;16.00;;;28.30;99.90;;;;;;5033657;28;20040;-65
2023/03/15 07:36:05;;;;;;;31.90;18.83;;;28.10;99.90;;;;;;5032967;28;20100;-62
2023/03/15 07:46:21;;;;;;;75.45;50.70;;;27.70;99.90;;;;;;5091122;27;20386;-63
2023/03/15 07:48:47;;;;;;;35.80;21.92;;;27.70;99.90;;;;;;5090920;28;20031;-63
2023/03/15 07:51:14;;;;;;;28.02;17.55;;;27.70;99.90;;;;;;5090930;28;20019;-63
2023/03/15 07:53:40;;;;;;;33.33;18.25;;;27.70;99.90;;;;;;5090497;28;20021;-62
2023/03/15 07:56:07;;;;;;;35.25;19.65;;;27.70;99.90;;;;;;5090675;28;20036;-62
2023/03/15 07:58:33;;;;;;;50.20;30.52;;;27.80;99.90;;;;;;5090701;28;20032;-62
2023/03/15 08:01:00;;;;;;;44.30;29.63;;;27.90;99.90;;;;;;5090944;28;20028;-63
2023/03/15 08:03:26;;;;;;;59.30;37.28;;;28.00;99.90;;;;;;5086738;28;20032;-64
2023/03/15 08:05:53;;;;;;;31.25;19.98;;;28.00;99.90;;;;;;5088777;28;20024;-63
2023/03/15 08:08:20;;;;;;;26.77;18.27;;;28.10;99.90;;;;;;5091036;28;20025;-63
2023/03/15 08:10:46;;;;;;;27.30;17.00;;;28.20;99.90;;;;;;5090841;28;20031;-63
2023/03/15 08:13:13;;;;;;;42.13;29.45;;;28.20;99.90;;;;;;5090608;28;20031;-63
2023/03/15 08:15:40;;;;;;;80.93;56.42;;;28.30;99.90;;;;;;5090556;28;20485;-63
2023/03/15 08:18:07;;;;;;;42.10;27.45;;;28.40;99.90;;;;;;5090219;28;20546;-61
2023/03/15 08:20:33;;;;;;;36.38;21.35;;;28.40;99.90;;;;;;5090486;28;20031;-64
2023/03/15 08:23:00;;;;;;;37.20;26.05;;;28.50;99.90;;;;;;5090292;28;20028;-62
2023/03/15 08:25:27;;;;;;;32.03;21.58;;;28.50;99.90;;;;;;5068138;28;20033;-62
2023/03/15 08:27:54;;;;;;;35.60;19.02;;;28.60;99.90;;;;;;5066829;28;20070;-61
2023/03/15 08:30:21;;;;;;;33.42;19.88;;;28.60;99.90;;;;;;5066975;28;20024;-61
2023/03/15 08:32:50;;;;;;;69.55;49.42;;;28.60;99.90;;;;;;5066563;28;20025;-64
2023/03/15 08:35:18;;;;;;;56.53;38.28;;;28.60;99.90;;;;;;5067295;28;20040;-64
2023/03/15 08:37:46;;;;;;;39.03;20.23;;;28.70;99.90;;;;;;5060251;28;20398;-63
2023/03/15 08:40:22;;;;;;;35.40;18.90;;;28.70;99.90;;;;;;5066679;28;20360;-63
2023/03/15 08:42:49;;;;;;;35.20;20.73;;;28.60;99.90;;;;;;5066285;28;20031;-63
2023/03/15 08:45:15;;;;;;;31.98;20.25;;;28.60;99.90;;;;;;5055744;28;20041;-63
2023/03/15 08:47:42;;;;;;;44.78;30.10;;;28.60;99.90;;;;;;5054346;28;20101;-62
2023/03/15 08:50:13;;;;;;;47.70;30.67;;;28.60;99.90;;;;;;5065328;28;20021;-61
2023/03/15 08:52:40;;;;;;;34.80;21.27;;;28.70;99.90;;;;;;5069049;28;20028;-62
2023/03/15 08:55:08;;;;;;;37.17;21.05;;;28.70;99.90;;;;;;5069267;28;20021;-63
2023/03/15 08:57:34;;;;;;;36.45;20.40;;;28.70;99.90;;;;;;5056227;28;20024;-62
2023/03/15 09:00:07;;;;;;;40.45;22.23;;;28.70;99.90;;;;;;5056033;28;20036;-62
2023/03/15 09:02:35;;;;;;;43.15;25.42;;;28.70;99.90;;;;;;5051419;28;20027;-62
2023/03/15 09:05:03;;;;;;;36.08;22.58;;;28.80;99.90;;;;;;5044652;28;20030;-62
2023/03/15 09:07:31;;;;;;;38.83;19.83;;;28.90;99.90;;;;;;5036735;28;20463;-62
2023/03/15 09:09:58;;;;;;;36.88;21.42;;;28.90;99.90;;;;;;5036764;28;20446;-64
2023/03/15 09:12:24;;;;;;;42.85;23.80;;;28.90;99.90;;;;;;5036151;28;20029;-65
2023/03/15 09:14:51;;;;;;;38.15;21.05;;;29.00;99.90;;;;;;5047207;28;20044;-64
2023/03/15 09:17:17;;;;;;;34.67;19.50;;;29.00;99.90;;;;;;5049476;28;20526;-62
2023/03/15 09:19:44;;;;;;;32.10;17.75;;;28.90;99.90;;;;;;5037915;28;20025;-63
2023/03/15 09:22:11;;;;;;;36.72;18.05;;;28.90;99.90;;;;;;5047085;28;20104;-63
2023/03/15 09:24:38;;;;;;;33.22;17.58;;;28.90;99.90;;;;;;5055579;28;20446;-63
2023/03/15 09:27:04;;;;;;;35.10;18.45;;;28.90;99.90;;;;;;5045686;28;20028;-64
2023/03/15 09:29:31;;;;;;;31.25;17.23;;;28.90;99.90;;;;;;5043710;28;20052;-63
2023/03/15 09:31:57;;;;;;;35.40;17.13;;;28.90;99.90;;;;;;5055548;28;20474;-63
2023/03/15 09:34:24;;;;;;;32.10;17.65;;;28.90;99.90;;;;;;5055554;28;20037;-63
2023/03/15 09:36:51;;;;;;;31.75;17.23;;;28.90;99.90;;;;;;5055328;28;20058;-62
2023/03/15 09:39:20;;;;;;;38.67;19.77;;;29.00;99.90;;;;;;5047229;28;20044;-64
2023/03/15 09:41:52;;;;;;;39.65;19.70;;;29.00;99.90;;;;;;5038968;28;20033;-65
2023/03/15 09:44:32;;;;;;;36.58;18.40;;;29.10;99.90;;;;;;5044020;28;20050;-63
2023/03/15 09:47:06;;;;;;;35.97;18.67;;;29.00;99.90;;;;;;5035456;28;20333;-64
2023/03/15 09:49:54;;;;;;;30.85;15.73;;;29.00;99.90;;;;;;5035814;28;20405;-69
2023/03/15 09:52:39;;;;;;;31.27;15.00;;;29.00;99.90;;;;;;5033609;28;20386;-66
2023/03/15 09:55:16;;;;;;;31.15;13.80;;;29.00;99.90;;;;;;5035781;28;20025;-65
2023/03/15 09:58:04;;;;;;;28.77;13.82;;;29.00;99.90;;;;;;5043976;28;20031;-66
2023/03/15 10:00:38;;;;;;;28.98;14.68;;;28.90;99.90;;;;;;5035854;28;20397;-65
2023/03/15 10:03:08;;;;;;;30.48;14.35;;;28.80;99.90;;;;;;5036802;28;20033;-68
2023/03/15 10:05:41;;;;;;;26.73;14.20;;;28.80;99.90;;;;;;5039776;28;20033;-68
2023/03/15 10:08:19;;;;;;;27.52;13.35;;;28.80;99.90;;;;;;5051708;28;20037;-67
2023/03/15 10:10:51;;;;;;;25.30;13.15;;;28.80;99.90;;;;;;5034875;28;20075;-68
2023/03/15 10:13:25;;;;;;;25.95;12.10;;;28.70;99.90;;;;;;5034606;28;20049;-66
2023/03/15 10:16:14;;;;;;;22.33;13.50;;;28.70;99.90;;;;;;5034817;28;20049;-68
2023/03/15 10:19:18;;;;;;;23.70;12.60;;;28.70;99.90;;;;;;5041231;28;20083;-67
2023/03/15 10:22:12;;;;;;;31.83;16.63;;;28.70;99.90;;;;;;5054636;28;20029;-72
2023/03/15 10:24:49;;;;;;;31.50;18.27;;;28.60;99.90;;;;;;5050213;28;20075;-68
2023/03/15 10:27:38;;;;;;;35.50;17.02;;;28.60;99.90;;;;;;5054274;28;20025;-72
2023/03/15 10:30:25;;;;;;;28.75;17.30;;;28.60;99.90;;;;;;5054438;28;20021;-68
2023/03/15 10:33:04;;;;;;;34.47;17.70;;;28.60;99.90;;;;;;5054164;28;20021;-69
2023/03/15 10:35:31;;;;;;;34.33;16.25;;;28.60;99.90;;;;;;5053467;28;20035;-68
2023/03/15 10:37:58;;;;;;;31.45;14.00;;;28.60;99.90;;;;;;5054316;28;20025;-68
2023/03/15 10:40:47;;;;;;;30.80;15.23;;;28.60;99.90;;;;;;5054345;28;20025;-66
2023/03/15 10:43:20;;;;;;;29.38;18.13;;;28.60;99.90;;;;;;5050883;28;20033;-68
2023/03/15 10:45:58;;;;;;;21.98;13.68;;;28.50;99.90;;;;;;5050887;28;20052;-67
2023/03/15 10:48:24;;;;;;;26.33;13.98;;;28.60;99.90;;;;;;5053391;28;20413;-66
2023/03/15 10:50:51;;;;;;;27.50;13.90;;;28.50;99.90;;;;;;5052817;28;20370;-65
2023/03/15 10:53:20;;;;;;;27.02;15.40;;;28.50;99.90;;;;;;5051676;28;20037;-67
2023/03/15 10:55:48;;;;;;;31.10;15.50;;;28.50;99.90;;;;;;5052315;28;20036;-66
2023/03/15 10:58:54;;;;;;;28.20;16.02;;;28.50;99.90;;;;;;5052374;28;20047;-67
2023/03/15 11:01:27;;;;;;;37.33;18.70;;;28.40;99.90;;;;;;5051080;28;20379;-66
2023/03/15 11:04:15;;;;;;;33.53;18.02;;;28.40;99.90;;;;;;5051496;28;20037;-66
2023/03/15 11:06:47;;;;;;;38.42;17.52;;;28.40;99.90;;;;;;5050190;28;20501;-68
2023/03/15 11:09:20;;;;;;;32.00;17.42;;;28.40;99.90;;;;;;5049288;28;20040;-63
2023/03/15 11:11:59;;;;;;;35.72;18.15;;;28.40;99.90;;;;;;5036795;28;20032;-70
2023/03/15 11:14:36;;;;;;;40.58;20.45;;;28.40;99.90;;;;;;5052002;28;20108;-66
2023/03/15 11:17:05;;;;;;;57.13;35.95;;;28.40;99.90;;;;;;5051568;28;20017;-66
2023/03/15 11:19:38;;;;;;;102.80;66.65;;;28.40;99.90;;;;;;5051394;28;20105;-66
2023/03/15 11:22:04;;;;;;;56.30;32.22;;;28.30;99.90;;;;;;5051352;28;20028;-69
2023/03/15 11:24:33;;;;;;;44.60;27.50;;;28.40;99.90;;;;;;5051559;28;20021;-67
2023/03/15 11:27:02;;;;;;;42.70;26.20;;;28.30;99.90;;;;;;5051407;28;20048;-68
2023/03/15 11:29:35;;;;;;;46.05;30.95;;;28.30;99.90;;;;;;5051521;28;20021;-67
2023/03/15 11:32:22;;;;;;;128.90;103.90;;;28.30;99.90;;;;;;5050012;28;20021;-66
2023/03/15 11:35:12;;;;;;;80.20;56.08;;;28.30;99.90;;;;;;5047969;28;20104;-67
2023/03/15 11:37:54;;;;;;;71.43;45.15;;;28.30;99.90;;;;;;5049602;28;20033;-68
2023/03/15 11:40:22;;;;;;;63.13;37.30;;;28.30;99.90;;;;;;5051045;28;20049;-68
2023/03/15 11:42:53;;;;;;;51.58;33.63;;;28.20;99.90;;;;;;5051394;28;20522;-67
2023/03/15 11:45:39;;;;;;;66.23;44.97;;;28.20;99.90;;;;;;5050546;28;20076;-69
2023/03/15 11:48:17;;;;;;;68.97;42.70;;;28.20;99.90;;;;;;5051447;28;20063;-68
2023/03/15 11:50:45;;;;;;;83.53;59.88;;;28.20;99.90;;;;;;5049186;28;20017;-68
2023/03/15 11:53:16;;;;;;;51.92;26.80;;;28.20;99.90;;;;;;5050435;28;20101;-67
2023/03/15 11:55:49;;;;;;;59.03;30.37;;;28.20;99.90;;;;;;5051403;28;20087;-66
2023/03/15 11:58:41;;;;;;;47.10;24.17;;;28.10;99.90;;;;;;5050329;28;20099;-67
2023/03/15 12:01:10;;;;;;;43.80;25.00;;;28.00;99.90;;;;;;5052146;28;20029;-68
2023/03/15 12:03:38;;;;;;;42.40;26.45;;;27.90;99.90;;;;;;5053066;28;20163;-68
2023/03/15 12:06:10;;;;;;;32.47;18.90;;;27.90;99.90;;;;;;5052844;28;20063;-66
2023/03/15 12:08:43;;;;;;;30.08;17.33;;;27.80;99.90;;;;;;5053108;28;20132;-66
2023/03/15 12:11:40;;;;;;;31.35;18.48;;;27.70;99.90;;;;;;5052619;28;20029;-67
2023/03/15 12:14:26;;;;;;;28.65;18.65;;;27.60;99.90;;;;;;5033052;28;20028;-68
2023/03/15 12:17:16;;;;;;;29.95;18.77;;;27.60;99.90;;;;;;5050447;28;20426;-68
2023/03/15 12:19:43;;;;;;;53.20;29.58;;;27.50;99.90;;;;;;5050442;28;20029;-67
2023/03/15 12:22:19;;;;;;;53.50;30.30;;;27.60;99.90;;;;;;5051267;28;20063;-67
2023/03/15 12:24:47;;;;;;;83.97;50.05;;;27.60;99.90;;;;;;5051733;28;20033;-66
2023/03/15 12:27:18;;;;;;;51.75;23.00;;;27.70;99.90;;;;;;5045549;28;20692;-65
2023/03/15 12:29:46;;;;;;;34.47;16.17;;;27.60;99.90;;;;;;5049319;28;20024;-64
2023/03/15 12:32:17;;;;;;;35.00;24.92;;;27.50;99.90;;;;;;5051564;28;20025;-66
2023/03/15 12:34:56;;;;;;;42.92;29.85;;;27.40;99.90;;;;;;5055612;28;20024;-66
2023/03/15 12:37:31;;;;;;;28.70;17.52;;;27.40;99.90;;;;;;5054507;28;20082;-66
2023/03/15 12:40:21;;;;;;;45.17;27.60;;;27.30;99.90;;;;;;5053740;28;20021;-67
2023/03/15 12:42:47;;;;;;;37.97;21.92;;;27.30;99.90;;;;;;5054365;28;20037;-67
2023/03/15 12:45:15;;;;;;;68.63;35.83;;;27.30;99.90;;;;;;5053763;28;20049;-68
2023/03/15 12:48:08;;;;;;;81.85;51.75;;;27.30;99.90;;;;;;5045831;28;20021;-67